sensor_id;sensor_type;location;lat;lon;timestamp;pressure;altitude;pressure_sealevel;temperature;humidity
49393;BME280;35268;42.642;23.308;2023-04-08T00:01:00;93970.59;;;4.87;61.25
49393;BME280;35268;42.642;23.308;2023-04-08T00:03:25;93968.25;;;4.80;61.04
49393;BME280;35268;42.642;23.308;2023-04-08T00:05:51;93975.19;;;4.66;61.55
49393;BME280;35268;42.642;23.308;2023-04-08T00:08:16;93980.50;;;4.60;61.14
49393;BME280;35268;42.642;23.308;2023-04-08T00:10:42;93974.22;;;4.51;61.56
49393;BME280;35268;42.642;23.308;2023-04-08T00:13:07;93984.53;;;4.48;61.97
49393;BME280;35268;42.642;23.308;2023-04-08T00:15:32;93977.41;;;4.43;62.05
49393;BME280;35268;42.642;23.308;2023-04-08T00:17:58;93977.97;;;4.40;62.70
49393;BME280;35268;42.642;23.308;2023-04-08T00:20:23;93976.09;;;4.46;62.48
49393;BME280;35268;42.642;23.308;2023-04-08T00:22:49;93968.16;;;4.51;62.30
49393;BME280;35268;42.642;23.308;2023-04-08T00:25:14;93974.78;;;4.48;62.18
49393;BME280;35268;42.642;23.308;2023-04-08T00:27:40;93967.63;;;4.49;62.57
49393;BME280;35268;42.642;23.308;2023-04-08T00:30:06;93967.63;;;4.49;62.54
49393;BME280;35268;42.642;23.308;2023-04-08T00:32:31;93976.84;;;4.51;62.23
49393;BME280;35268;42.642;23.308;2023-04-08T00:34:57;93978.72;;;4.51;62.29
49393;BME280;35268;42.642;23.308;2023-04-08T00:37:23;93978.97;;;4.54;62.54
49393;BME280;35268;42.642;23.308;2023-04-08T00:39:49;93973.66;;;4.59;62.65
49393;BME280;35268;42.642;23.308;2023-04-08T00:42:16;93971.78;;;4.65;62.91
49393;BME280;35268;42.642;23.308;2023-04-08T00:44:41;93979.38;;;4.72;63.06
49393;BME280;35268;42.642;23.308;2023-04-08T00:47:11;93985.44;;;4.77;63.15
49393;BME280;35268;42.642;23.308;2023-04-08T00:49:36;93981.75;;;4.78;63.46
49393;BME280;35268;42.642;23.308;2023-04-08T00:52:02;93984.59;;;4.82;63.43
49393;BME280;35268;42.642;23.308;2023-04-08T00:54:27;93973.50;;;4.85;63.19
49393;BME280;35268;42.642;23.308;2023-04-08T00:56:53;93985.09;;;4.89;63.00
49393;BME280;35268;42.642;23.308;2023-04-08T00:59:18;93981.63;;;4.94;63.05
49393;BME280;35268;42.642;23.308;2023-04-08T01:01:56;93981.88;;;4.97;62.68
49393;BME280;35268;42.642;23.308;2023-04-08T01:04:32;93985.56;;;4.96;62.81
49393;BME280;35268;42.642;23.308;2023-04-08T01:09:32;93984.78;;;5.01;62.84
49393;BME280;35268;42.642;23.308;2023-04-08T01:12:03;93987.13;;;5.02;62.61
49393;BME280;35268;42.642;23.308;2023-04-08T01:14:31;93993.44;;;5.07;62.10
49393;BME280;35268;42.642;23.308;2023-04-08T01:16:59;93982.59;;;5.08;62.26
49393;BME280;35268;42.642;23.308;2023-04-08T01:19:36;93987.03;;;5.13;62.53
49393;BME280;35268;42.642;23.308;2023-04-08T01:24:42;93988.06;;;5.17;62.42
49393;BME280;35268;42.642;23.308;2023-04-08T01:27:09;93981.72;;;5.18;62.57
49393;BME280;35268;42.642;23.308;2023-04-08T01:29:36;93982.00;;;5.16;62.55
49393;BME280;35268;42.642;23.308;2023-04-08T01:32:02;93973.28;;;5.16;62.68
49393;BME280;35268;42.642;23.308;2023-04-08T01:34:28;93976.44;;;5.18;62.50
49393;BME280;35268;42.642;23.308;2023-04-08T01:36:55;93981.72;;;5.18;62.58
49393;BME280;35268;42.642;23.308;2023-04-08T01:39:22;93978.31;;;5.17;63.17
49393;BME280;35268;42.642;23.308;2023-04-08T01:41:49;93987.03;;;5.18;63.22
49393;BME280;35268;42.642;23.308;2023-04-08T01:44:18;93983.31;;;5.19;63.37
49393;BME280;35268;42.642;23.308;2023-04-08T01:46:44;93978.25;;;5.22;63.68
49393;BME280;35268;42.642;23.308;2023-04-08T01:49:12;93988.03;;;5.22;63.72
49393;BME280;35268;42.642;23.308;2023-04-08T01:51:40;93980.38;;;5.20;63.34
49393;BME280;35268;42.642;23.308;2023-04-08T01:54:05;93981.16;;;5.21;63.25
49393;BME280;35268;42.642;23.308;2023-04-08T01:56:35;93977.75;;;5.20;63.29
49393;BME280;35268;42.642;23.308;2023-04-08T01:59:05;93982.50;;;5.18;63.30
49393;BME280;35268;42.642;23.308;2023-04-08T02:01:34;93981.22;;;5.16;63.57
49393;BME280;35268;42.642;23.308;2023-04-08T02:04:01;93990.44;;;5.18;63.55
49393;BME280;35268;42.642;23.308;2023-04-08T02:06:27;94003.66;;;5.18;63.60
49393;BME280;35268;42.642;23.308;2023-04-08T02:08:55;94000.75;;;5.20;63.66
49393;BME280;35268;42.642;23.308;2023-04-08T02:11:20;93993.09;;;5.18;63.60
49393;BME280;35268;42.642;23.308;2023-04-08T02:13:46;94011.38;;;5.10;63.88
49393;BME280;35268;42.642;23.308;2023-04-08T02:16:15;94010.63;;;5.04;63.99
49393;BME280;35268;42.642;23.308;2023-04-08T02:18:45;94010.38;;;5.00;63.76
49393;BME280;35268;42.642;23.308;2023-04-08T02:21:16;94007.78;;;4.90;64.19
49393;BME280;35268;42.642;23.308;2023-04-08T02:23:47;94007.38;;;4.73;64.37
49393;BME280;35268;42.642;23.308;2023-04-08T02:26:15;94011.41;;;4.60;64.75
49393;BME280;35268;42.642;23.308;2023-04-08T02:28:42;94009.56;;;4.55;64.88
49393;BME280;35268;42.642;23.308;2023-04-08T02:31:09;94006.22;;;4.34;65.48
49393;BME280;35268;42.642;23.308;2023-04-08T02:33:38;94011.03;;;4.22;65.85
49393;BME280;35268;42.642;23.308;2023-04-08T02:36:04;94011.31;;;4.10;65.85
49393;BME280;35268;42.642;23.308;2023-04-08T02:38:30;94000.56;;;3.91;66.66
49393;BME280;35268;42.642;23.308;2023-04-08T02:40:56;94010.03;;;3.97;66.52
49393;BME280;35268;42.642;23.308;2023-04-08T02:43:21;94010.81;;;3.98;66.57
49393;BME280;35268;42.642;23.308;2023-04-08T02:45:53;94007.41;;;3.97;66.75
49393;BME280;35268;42.642;23.308;2023-04-08T02:48:19;94003.97;;;4.02;66.71
49393;BME280;35268;42.642;23.308;2023-04-08T02:50:45;94006.56;;;4.12;66.55
49393;BME280;35268;42.642;23.308;2023-04-08T02:53:10;94017.13;;;4.17;66.30
49393;BME280;35268;42.642;23.308;2023-04-08T02:55:36;94010.25;;;4.21;65.28
49393;BME280;35268;42.642;23.308;2023-04-08T02:58:02;94005.75;;;4.22;64.78
49393;BME280;35268;42.642;23.308;2023-04-08T03:00:27;94011.81;;;4.22;65.40
49393;BME280;35268;42.642;23.308;2023-04-08T03:02:52;94011.03;;;4.22;65.29
49393;BME280;35268;42.642;23.308;2023-04-08T03:05:18;94012.84;;;4.27;65.02
49393;BME280;35268;42.642;23.308;2023-04-08T03:07:44;94010.22;;;4.32;65.29
49393;BME280;35268;42.642;23.308;2023-04-08T03:10:09;94010.19;;;4.37;65.20
49393;BME280;35268;42.642;23.308;2023-04-08T03:12:35;94014.38;;;4.43;65.25
49393;BME280;35268;42.642;23.308;2023-04-08T03:15:00;94017.00;;;4.48;65.36
49393;BME280;35268;42.642;23.308;2023-04-08T03:17:27;94012.75;;;4.52;65.18
49393;BME280;35268;42.642;23.308;2023-04-08T03:19:53;94010.38;;;4.51;65.29
49393;BME280;35268;42.642;23.308;2023-04-08T03:22:18;94013.00;;;4.56;65.53
49393;BME280;35268;42.642;23.308;2023-04-08T03:24:43;94004.81;;;4.57;65.38
49393;BME280;35268;42.642;23.308;2023-04-08T03:27:09;94007.44;;;4.62;65.11
49393;BME280;35268;42.642;23.308;2023-04-08T03:29:37;94012.44;;;4.64;65.20
49393;BME280;35268;42.642;23.308;2023-04-08T03:32:02;94018.25;;;4.66;65.49
49393;BME280;35268;42.642;23.308;2023-04-08T03:34:28;94017.44;;;4.66;65.73
49393;BME280;35268;42.642;23.308;2023-04-08T03:36:53;94016.91;;;4.69;65.93
49393;BME280;35268;42.642;23.308;2023-04-08T03:39:18;94015.06;;;4.69;65.81
49393;BME280;35268;42.642;23.308;2023-04-08T03:41:44;94014.53;;;4.67;65.14
49393;BME280;35268;42.642;23.308;2023-04-08T03:44:09;94009.53;;;4.66;64.77
49393;BME280;35268;42.642;23.308;2023-04-08T03:46:35;94018.75;;;4.68;64.88
49393;BME280;35268;42.642;23.308;2023-04-08T03:49:00;94006.34;;;4.69;65.06
49393;BME280;35268;42.642;23.308;2023-04-08T03:51:26;94019.50;;;4.74;65.28
49393;BME280;35268;42.642;23.308;2023-04-08T03:53:52;94009.47;;;4.76;65.44
49393;BME280;35268;42.642;23.308;2023-04-08T03:56:18;94015.25;;;4.78;65.05
49393;BME280;35268;42.642;23.308;2023-04-08T03:58:43;94016.28;;;4.82;65.10
49393;BME280;35268;42.642;23.308;2023-04-08T04:01:09;94011.00;;;4.82;64.78
49393;BME280;35268;42.642;23.308;2023-04-08T04:03:34;94015.50;;;4.81;64.84
49393;BME280;35268;42.642;23.308;2023-04-08T04:06:00;94014.69;;;4.86;64.75
49393;BME280;35268;42.642;23.308;2023-04-08T04:08:25;94004.63;;;4.88;64.84
49393;BME280;35268;42.642;23.308;2023-04-08T04:10:51;94003.59;;;4.84;65.00
49393;BME280;35268;42.642;23.308;2023-04-08T04:13:16;94011.25;;;4.86;64.56
49393;BME280;35268;42.642;23.308;2023-04-08T04:15:43;94015.75;;;4.85;64.69
49393;BME280;35268;42.642;23.308;2023-04-08T04:18:09;94012.03;;;4.86;64.45
49393;BME280;35268;42.642;23.308;2023-04-08T04:20:34;94014.69;;;4.86;64.71
49393;BME280;35268;42.642;23.308;2023-04-08T04:23:01;94015.47;;;4.92;64.29
49393;BME280;35268;42.642;23.308;2023-04-08T04:25:26;94017.31;;;4.91;64.43
49393;BME280;35268;42.642;23.308;2023-04-08T04:27:52;94019.97;;;4.91;64.48
49393;BME280;35268;42.642;23.308;2023-04-08T04:30:17;94023.66;;;4.90;64.34
49393;BME280;35268;42.642;23.308;2023-04-08T04:32:43;94026.06;;;4.81;64.73
49393;BME280;35268;42.642;23.308;2023-04-08T04:35:09;94026.59;;;4.89;64.57
49393;BME280;35268;42.642;23.308;2023-04-08T04:37:35;94027.63;;;4.88;64.78
49393;BME280;35268;42.642;23.308;2023-04-08T04:40:01;94030.28;;;4.88;64.80
49393;BME280;35268;42.642;23.308;2023-04-08T04:42:27;94029.22;;;4.89;64.82
49393;BME280;35268;42.642;23.308;2023-04-08T04:44:52;94029.50;;;4.87;64.86
49393;BME280;35268;42.642;23.308;2023-04-08T04:47:18;94028.16;;;4.90;64.91
49393;BME280;35268;42.642;23.308;2023-04-08T04:49:44;94030.47;;;4.96;64.54
49393;BME280;35268;42.642;23.308;2023-04-08T04:52:10;94030.78;;;4.95;64.33
49393;BME280;35268;42.642;23.308;2023-04-08T04:54:35;94032.59;;;4.94;63.56
49393;BME280;35268;42.642;23.308;2023-04-08T04:57:01;94034.25;;;4.85;63.44
49393;BME280;35268;42.642;23.308;2023-04-08T04:59:26;94037.41;;;4.82;63.56
49393;BME280;35268;42.642;23.308;2023-04-08T05:01:51;94036.69;;;4.76;63.23
49393;BME280;35268;42.642;23.308;2023-04-08T05:04:17;94036.69;;;4.76;63.23
49393;BME280;35268;42.642;23.308;2023-04-08T05:06:42;94039.81;;;4.83;62.81
49393;BME280;35268;42.642;23.308;2023-04-08T05:09:08;94028.94;;;4.90;62.52
49393;BME280;35268;42.642;23.308;2023-04-08T05:11:33;94037.38;;;4.92;63.20
49393;BME280;35268;42.642;23.308;2023-04-08T05:13:59;94036.84;;;4.95;63.85
49393;BME280;35268;42.642;23.308;2023-04-08T05:16:24;94040.00;;;4.97;63.50
49393;BME280;35268;42.642;23.308;2023-04-08T05:18:49;94031.81;;;4.99;63.21
49393;BME280;35268;42.642;23.308;2023-04-08T05:21:15;94021.72;;;5.06;63.21
49393;BME280;35268;42.642;23.308;2023-04-08T05:23:41;94038.31;;;5.12;62.81
49393;BME280;35268;42.642;23.308;2023-04-08T05:26:07;94030.84;;;5.24;62.48
49393;BME280;35268;42.642;23.308;2023-04-08T05:28:33;94031.09;;;5.28;62.48
49393;BME280;35268;42.642;23.308;2023-04-08T05:30:58;94027.63;;;5.32;61.47
49393;BME280;35268;42.642;23.308;2023-04-08T05:33:24;94037.66;;;5.35;61.75
49393;BME280;35268;42.642;23.308;2023-04-08T05:35:50;94034.72;;;5.37;61.10
49393;BME280;35268;42.642;23.308;2023-04-08T05:38:17;94043.38;;;5.48;60.72
49393;BME280;35268;42.642;23.308;2023-04-08T05:40:43;94038.78;;;5.58;60.48
49393;BME280;35268;42.642;23.308;2023-04-08T05:43:08;94037.69;;;5.65;60.01
49393;BME280;35268;42.642;23.308;2023-04-08T05:45:33;94036.31;;;5.72;59.66
49393;BME280;35268;42.642;23.308;2023-04-08T05:47:59;94032.75;;;5.82;59.35
49393;BME280;35268;42.642;23.308;2023-04-08T05:50:24;94034.59;;;5.87;58.89
49393;BME280;35268;42.642;23.308;2023-04-08T05:52:50;94030.06;;;5.87;59.14
49393;BME280;35268;42.642;23.308;2023-04-08T05:55:15;94023.19;;;5.86;59.05
49393;BME280;35268;42.642;23.308;2023-04-08T05:57:41;94028.72;;;5.95;59.42
49393;BME280;35268;42.642;23.308;2023-04-08T06:00:08;94033.91;;;6.05;58.83
49393;BME280;35268;42.642;23.308;2023-04-08T06:02:34;94027.44;;;6.16;58.64
49393;BME280;35268;42.642;23.308;2023-04-08T06:05:00;94032.69;;;6.21;58.53
49393;BME280;35268;42.642;23.308;2023-04-08T06:07:26;94035.22;;;6.32;58.16
49393;BME280;35268;42.642;23.308;2023-04-08T06:09:51;94030.19;;;6.30;57.90
49393;BME280;35268;42.642;23.308;2023-04-08T06:12:17;94029.59;;;6.38;57.51
49393;BME280;35268;42.642;23.308;2023-04-08T06:14:42;94031.09;;;6.45;57.51
49393;BME280;35268;42.642;23.308;2023-04-08T06:17:08;94023.81;;;6.55;57.29
49393;BME280;35268;42.642;23.308;2023-04-08T06:19:33;94020.75;;;6.67;57.13
49393;BME280;35268;42.642;23.308;2023-04-08T06:21:59;94031.38;;;6.67;56.49
49393;BME280;35268;42.642;23.308;2023-04-08T06:24:25;94032.59;;;6.75;56.68
49393;BME280;35268;42.642;23.308;2023-04-08T06:26:52;94036.41;;;6.88;56.15
49393;BME280;35268;42.642;23.308;2023-04-08T06:29:18;94033.13;;;6.96;56.01
49393;BME280;35268;42.642;23.308;2023-04-08T06:31:43;94031.78;;;6.98;55.92
49393;BME280;35268;42.642;23.308;2023-04-08T06:34:08;94031.81;;;6.93;56.16
49393;BME280;35268;42.642;23.308;2023-04-08T06:36:34;94033.34;;;6.99;55.99
49393;BME280;35268;42.642;23.308;2023-04-08T06:38:59;94041.75;;;7.07;55.65
49393;BME280;35268;42.642;23.308;2023-04-08T06:41:25;94027.69;;;7.06;55.80
49393;BME280;35268;42.642;23.308;2023-04-08T06:43:50;94036.63;;;7.10;55.81
49393;BME280;35268;42.642;23.308;2023-04-08T06:46:16;94036.22;;;7.22;55.81
49393;BME280;35268;42.642;23.308;2023-04-08T06:48:41;94038.94;;;7.36;55.32
49393;BME280;35268;42.642;23.308;2023-04-08T06:51:06;94039.72;;;7.36;55.06
49393;BME280;35268;42.642;23.308;2023-04-08T06:53:32;94046.00;;;7.40;55.29
49393;BME280;35268;42.642;23.308;2023-04-08T06:55:58;94044.34;;;7.44;55.14
49393;BME280;35268;42.642;23.308;2023-04-08T06:58:23;94043.66;;;7.39;55.20
49393;BME280;35268;42.642;23.308;2023-04-08T07:00:49;94044.00;;;7.32;55.96
49393;BME280;35268;42.642;23.308;2023-04-08T07:03:14;94041.03;;;7.39;56.08
49393;BME280;35268;42.642;23.308;2023-04-08T07:05:40;94043.31;;;7.46;55.68
49393;BME280;35268;42.642;23.308;2023-04-08T07:08:06;94046.16;;;7.49;55.77
49393;BME280;35268;42.642;23.308;2023-04-08T07:10:33;94036.31;;;7.69;55.66
49393;BME280;35268;42.642;23.308;2023-04-08T07:12:59;94039.78;;;7.83;55.33
49393;BME280;35268;42.642;23.308;2023-04-08T07:15:25;94038.63;;;7.89;54.93
49393;BME280;35268;42.642;23.308;2023-04-08T07:17:50;94040.53;;;8.02;54.52
49393;BME280;35268;42.642;23.308;2023-04-08T07:20:16;94041.06;;;8.18;54.54
49393;BME280;35268;42.642;23.308;2023-04-08T07:22:42;94048.72;;;8.34;53.67
49393;BME280;35268;42.642;23.308;2023-04-08T07:25:07;94051.91;;;8.50;53.01
49393;BME280;35268;42.642;23.308;2023-04-08T07:27:33;94050.94;;;8.59;52.96
49393;BME280;35268;42.642;23.308;2023-04-08T07:29:59;94044.81;;;8.73;53.19
49393;BME280;35268;42.642;23.308;2023-04-08T07:32:25;94055.47;;;8.87;52.62
49393;BME280;35268;42.642;23.308;2023-04-08T07:34:51;94054.47;;;8.96;52.39
49393;BME280;35268;42.642;23.308;2023-04-08T07:37:17;94045.56;;;9.15;52.42
49393;BME280;35268;42.642;23.308;2023-04-08T07:39:42;94048.97;;;9.29;52.15
49393;BME280;35268;42.642;23.308;2023-04-08T07:42:08;94052.50;;;9.38;52.53
49393;BME280;35268;42.642;23.308;2023-04-08T07:44:33;94064.00;;;9.48;51.26
49393;BME280;35268;42.642;23.308;2023-04-08T07:46:59;94061.97;;;9.67;52.60
49393;BME280;35268;42.642;23.308;2023-04-08T07:49:24;94065.28;;;9.73;51.54
49393;BME280;35268;42.642;23.308;2023-04-08T07:51:50;94063.53;;;9.91;51.34
49393;BME280;35268;42.642;23.308;2023-04-08T07:54:15;94068.06;;;10.13;51.69
49393;BME280;35268;42.642;23.308;2023-04-08T07:56:42;94060.47;;;10.29;50.50
49393;BME280;35268;42.642;23.308;2023-04-08T07:59:09;94068.28;;;10.48;49.12
49393;BME280;35268;42.642;23.308;2023-04-08T08:01:35;94068.09;;;10.44;49.30
49393;BME280;35268;42.642;23.308;2023-04-08T08:04:01;94077.09;;;10.57;49.41
49393;BME280;35268;42.642;23.308;2023-04-08T08:06:26;94079.78;;;10.66;47.86
49393;BME280;35268;42.642;23.308;2023-04-08T08:08:52;94082.63;;;10.60;47.33
49393;BME280;35268;42.642;23.308;2023-04-08T08:11:18;94075.84;;;10.54;47.14
49393;BME280;35268;42.642;23.308;2023-04-08T08:13:43;94075.66;;;10.51;47.69
49393;BME280;35268;42.642;23.308;2023-04-08T08:16:08;94076.16;;;10.53;48.48
49393;BME280;35268;42.642;23.308;2023-04-08T08:18:36;94076.63;;;10.55;47.45
49393;BME280;35268;42.642;23.308;2023-04-08T08:21:04;94076.00;;;10.58;46.97
49393;BME280;35268;42.642;23.308;2023-04-08T08:23:30;94077.78;;;10.40;46.83
49393;BME280;35268;42.642;23.308;2023-04-08T08:26:03;94080.72;;;10.30;47.07
49393;BME280;35268;42.642;23.308;2023-04-08T08:28:29;94080.47;;;10.17;46.90
49393;BME280;35268;42.642;23.308;2023-04-08T08:30:54;94079.09;;;10.20;47.51
49393;BME280;35268;42.642;23.308;2023-04-08T08:33:19;94077.69;;;10.22;47.77
49393;BME280;35268;42.642;23.308;2023-04-08T08:35:45;94082.09;;;10.27;48.28
49393;BME280;35268;42.642;23.308;2023-04-08T08:38:11;94082.38;;;10.25;48.81
49393;BME280;35268;42.642;23.308;2023-04-08T08:40:37;94083.97;;;10.27;48.97
49393;BME280;35268;42.642;23.308;2023-04-08T08:43:03;94087.81;;;10.34;48.15
49393;BME280;35268;42.642;23.308;2023-04-08T08:45:29;94089.09;;;10.46;48.33
49393;BME280;35268;42.642;23.308;2023-04-08T08:47:55;94083.09;;;10.62;47.91
49393;BME280;35268;42.642;23.308;2023-04-08T08:50:21;94084.25;;;10.79;46.54
49393;BME280;35268;42.642;23.308;2023-04-08T08:52:51;94082.38;;;10.88;46.22
49393;BME280;35268;42.642;23.308;2023-04-08T08:55:20;94087.25;;;10.86;45.47
49393;BME280;35268;42.642;23.308;2023-04-08T08:57:49;94086.44;;;10.77;45.13
49393;BME280;35268;42.642;23.308;2023-04-08T09:00:15;94089.16;;;10.94;45.66
49393;BME280;35268;42.642;23.308;2023-04-08T09:02:41;94087.03;;;11.14;45.64
49393;BME280;35268;42.642;23.308;2023-04-08T09:05:06;94083.91;;;11.29;44.87
49393;BME280;35268;42.642;23.308;2023-04-08T09:07:35;94090.03;;;11.47;44.73
49393;BME280;35268;42.642;23.308;2023-04-08T09:10:01;94087.53;;;11.68;44.47
49393;BME280;35268;42.642;23.308;2023-04-08T09:12:27;94087.75;;;11.89;45.08
49393;BME280;35268;42.642;23.308;2023-04-08T09:15:06;94090.38;;;12.07;44.94
49393;BME280;35268;42.642;23.308;2023-04-08T09:17:37;94084.84;;;12.29;44.44
49393;BME280;35268;42.642;23.308;2023-04-08T09:20:10;94079.78;;;12.45;43.73
49393;BME280;35268;42.642;23.308;2023-04-08T09:22:56;94083.84;;;12.60;43.61
49393;BME280;35268;42.642;23.308;2023-04-08T09:25:26;94080.66;;;12.67;43.76
49393;BME280;35268;42.642;23.308;2023-04-08T09:27:52;94070.03;;;12.49;44.33
49393;BME280;35268;42.642;23.308;2023-04-08T09:30:21;94074.19;;;12.68;44.23
49393;BME280;35268;42.642;23.308;2023-04-08T09:32:53;94074.16;;;12.85;43.73
49393;BME280;35268;42.642;23.308;2023-04-08T09:35:19;94066.25;;;12.89;42.07
49393;BME280;35268;42.642;23.308;2023-04-08T09:37:46;94064.69;;;12.88;43.01
49393;BME280;35268;42.642;23.308;2023-04-08T09:40:12;94062.72;;;13.05;42.97
49393;BME280;35268;42.642;23.308;2023-04-08T09:42:43;94058.38;;;13.22;42.78
49393;BME280;35268;42.642;23.308;2023-04-08T09:45:09;94058.00;;;13.32;42.20
49393;BME280;35268;42.642;23.308;2023-04-08T09:47:57;94050.66;;;13.50;41.64
49393;BME280;35268;42.642;23.308;2023-04-08T09:50:30;94049.72;;;13.67;41.21
49393;BME280;35268;42.642;23.308;2023-04-08T09:53:00;94050.25;;;13.81;40.57
49393;BME280;35268;42.642;23.308;2023-04-08T09:55:29;94054.00;;;14.01;40.81
49393;BME280;35268;42.642;23.308;2023-04-08T09:58:27;94053.84;;;14.19;40.43
49393;BME280;35268;42.642;23.308;2023-04-08T10:00:53;94046.38;;;14.24;39.92
49393;BME280;35268;42.642;23.308;2023-04-08T10:05:54;94046.22;;;14.09;39.82
49393;BME280;35268;42.642;23.308;2023-04-08T10:08:24;94060.41;;;14.09;39.84
49393;BME280;35268;42.642;23.308;2023-04-08T10:10:51;94053.47;;;14.08;39.99
49393;BME280;35268;42.642;23.308;2023-04-08T10:13:18;94050.75;;;13.96;40.32
49393;BME280;35268;42.642;23.308;2023-04-08T10:15:44;94055.09;;;13.88;40.76
49393;BME280;35268;42.642;23.308;2023-04-08T10:27:56;94046.09;;;13.21;44.43
49393;BME280;35268;42.642;23.308;2023-04-08T10:32:53;94050.03;;;13.23;44.84
49393;BME280;35268;42.642;23.308;2023-04-08T10:35:37;94040.47;;;13.14;44.91
49393;BME280;35268;42.642;23.308;2023-04-08T10:38:06;94047.19;;;13.20;45.87
49393;BME280;35268;42.642;23.308;2023-04-08T10:40:35;94034.94;;;13.19;45.71
49393;BME280;35268;42.642;23.308;2023-04-08T10:43:06;94038.31;;;13.28;47.23
49393;BME280;35268;42.642;23.308;2023-04-08T10:45:32;94021.91;;;13.38;47.23
49393;BME280;35268;42.642;23.308;2023-04-08T10:48:22;94018.97;;;13.52;48.10
49393;BME280;35268;42.642;23.308;2023-04-08T10:51:00;94022.16;;;13.67;46.79
49393;BME280;35268;42.642;23.308;2023-04-08T10:53:27;94019.63;;;13.70;45.75
49393;BME280;35268;42.642;23.308;2023-04-08T10:55:54;94017.59;;;13.67;45.00
49393;BME280;35268;42.642;23.308;2023-04-08T10:58:19;94020.53;;;13.74;44.39
49393;BME280;35268;42.642;23.308;2023-04-08T11:00:45;94024.13;;;13.78;43.58
49393;BME280;35268;42.642;23.308;2023-04-08T11:03:10;94017.97;;;13.78;42.76
49393;BME280;35268;42.642;23.308;2023-04-08T11:05:37;94015.63;;;13.76;42.26
49393;BME280;35268;42.642;23.308;2023-04-08T11:08:04;94010.06;;;13.81;42.22
49393;BME280;35268;42.642;23.308;2023-04-08T11:10:30;94016.09;;;13.78;42.71
49393;BME280;35268;42.642;23.308;2023-04-08T11:12:56;94010.28;;;13.76;42.13
49393;BME280;35268;42.642;23.308;2023-04-08T11:15:25;94009.78;;;13.62;42.59
49393;BME280;35268;42.642;23.308;2023-04-08T11:17:51;94014.47;;;13.65;42.81
49393;BME280;35268;42.642;23.308;2023-04-08T11:20:18;94003.19;;;13.72;42.90
49393;BME280;35268;42.642;23.308;2023-04-08T11:22:43;93988.84;;;13.76;41.36
49393;BME280;35268;42.642;23.308;2023-04-08T11:25:12;93996.53;;;13.78;41.05
49393;BME280;35268;42.642;23.308;2023-04-08T11:27:38;93991.97;;;13.78;40.92
49393;BME280;35268;42.642;23.308;2023-04-08T11:30:06;93989.88;;;13.84;40.92
49393;BME280;35268;42.642;23.308;2023-04-08T11:32:34;93984.75;;;13.91;40.51
49393;BME280;35268;42.642;23.308;2023-04-08T11:35:00;93979.69;;;13.77;40.49
49393;BME280;35268;42.642;23.308;2023-04-08T11:37:32;93973.38;;;13.94;41.43
49393;BME280;35268;42.642;23.308;2023-04-08T11:40:00;93981.03;;;14.17;40.27
49393;BME280;35268;42.642;23.308;2023-04-08T11:42:31;93971.00;;;14.38;39.47
49393;BME280;35268;42.642;23.308;2023-04-08T11:44:57;93970.47;;;14.45;37.21
49393;BME280;35268;42.642;23.308;2023-04-08T11:47:32;93974.81;;;14.37;37.09
49393;BME280;35268;42.642;23.308;2023-04-08T11:49:58;93967.88;;;14.36;37.84
49393;BME280;35268;42.642;23.308;2023-04-08T11:52:42;93971.44;;;14.53;38.66
49393;BME280;35268;42.642;23.308;2023-04-08T11:55:09;93970.94;;;14.72;38.17
49393;BME280;35268;42.642;23.308;2023-04-08T11:57:38;93959.75;;;14.94;37.91
49393;BME280;35268;42.642;23.308;2023-04-08T12:00:05;93967.53;;;15.12;37.41
49393;BME280;35268;42.642;23.308;2023-04-08T12:02:31;93951.75;;;15.22;37.99
49393;BME280;35268;42.642;23.308;2023-04-08T12:04:56;93951.91;;;15.42;37.37
49393;BME280;35268;42.642;23.308;2023-04-08T12:07:22;93947.50;;;15.50;37.89
49393;BME280;35268;42.642;23.308;2023-04-08T12:09:47;93959.03;;;15.50;36.70
49393;BME280;35268;42.642;23.308;2023-04-08T12:12:13;93946.78;;;15.65;36.62
49393;BME280;35268;42.642;23.308;2023-04-08T12:14:38;93939.16;;;15.79;35.83
49393;BME280;35268;42.642;23.308;2023-04-08T12:17:04;93933.94;;;15.87;35.67
49393;BME280;35268;42.642;23.308;2023-04-08T12:19:29;93942.47;;;16.04;35.41
49393;BME280;35268;42.642;23.308;2023-04-08T12:21:55;93929.72;;;16.01;34.65
49393;BME280;35268;42.642;23.308;2023-04-08T12:24:20;93932.41;;;15.86;35.43
49393;BME280;35268;42.642;23.308;2023-04-08T12:26:46;93934.09;;;15.50;35.95
49393;BME280;35268;42.642;23.308;2023-04-08T12:29:11;93928.13;;;15.16;35.20
49393;BME280;35268;42.642;23.308;2023-04-08T12:31:39;93925.97;;;14.93;35.21
49393;BME280;35268;42.642;23.308;2023-04-08T12:34:04;93934.03;;;14.81;36.39
49393;BME280;35268;42.642;23.308;2023-04-08T12:36:31;93925.53;;;14.67;36.52
49393;BME280;35268;42.642;23.308;2023-04-08T12:38:57;93920.50;;;14.53;36.80
49393;BME280;35268;42.642;23.308;2023-04-08T12:41:22;93922.06;;;14.41;37.05
49393;BME280;35268;42.642;23.308;2023-04-08T12:43:48;93915.56;;;14.30;37.35
49393;BME280;35268;42.642;23.308;2023-04-08T12:46:13;93934.00;;;14.07;38.28
49393;BME280;35268;42.642;23.308;2023-04-08T12:48:39;93925.59;;;13.84;38.38
49393;BME280;35268;42.642;23.308;2023-04-08T12:51:04;93925.88;;;13.70;38.85
49393;BME280;35268;42.642;23.308;2023-04-08T12:53:29;93923.34;;;13.53;39.09
49393;BME280;35268;42.642;23.308;2023-04-08T12:55:55;93929.78;;;13.39;39.18
49393;BME280;35268;42.642;23.308;2023-04-08T12:58:23;93923.94;;;13.16;39.50
49393;BME280;35268;42.642;23.308;2023-04-08T13:00:49;93921.34;;;13.08;40.24
49393;BME280;35268;42.642;23.308;2023-04-08T13:03:15;93924.94;;;12.91;40.78
49393;BME280;35268;42.642;23.308;2023-04-08T13:05:42;93931.47;;;12.81;41.01
49393;BME280;35268;42.642;23.308;2023-04-08T13:08:08;93936.03;;;12.80;41.59
49393;BME280;35268;42.642;23.308;2023-04-08T13:10:33;93926.28;;;12.76;41.54
49393;BME280;35268;42.642;23.308;2023-04-08T13:12:58;93923.16;;;12.74;43.88